createdAt,value
2022-09-01T00:00:25.990Z,17.73
2022-09-01T00:02:53.462Z,22.70
2022-09-01T00:05:21.136Z,23.67
2022-09-01T00:07:49.978Z,20.38
2022-09-01T00:10:17.513Z,18.52
2022-09-01T00:12:44.978Z,16.63
2022-09-01T00:15:13.426Z,16.40
2022-09-01T00:17:40.900Z,13.45
2022-09-01T00:20:09.671Z,17.00
2022-09-01T00:22:37.126Z,19.63
2022-09-01T00:25:07.103Z,16.70
2022-09-01T00:27:34.621Z,16.15
2022-09-01T00:30:02.029Z,13.23
2022-09-01T00:32:29.610Z,15.82
2022-09-01T00:34:57.034Z,16.00
2022-09-01T00:37:24.468Z,13.73
2022-09-01T00:39:51.930Z,14.30
2022-09-01T00:42:20.909Z,13.63
2022-09-01T00:44:48.367Z,13.40
2022-09-01T00:47:15.828Z,12.50
2022-09-01T00:49:49.569Z,11.77
2022-09-01T00:52:26.733Z,14.68
2022-09-01T00:54:56.967Z,12.82
2022-09-01T00:57:27.250Z,12.43
2022-09-01T00:59:58.331Z,9.35
2022-09-01T01:02:26.555Z,10.13
2022-09-01T01:04:54.183Z,11.65
2022-09-01T01:07:23.050Z,13.48
2022-09-01T01:09:51.520Z,10.77
2022-09-01T01:12:20.125Z,9.52
2022-09-01T01:14:50.803Z,7.95
2022-09-01T01:17:21.146Z,9.57
2022-09-01T01:19:51.942Z,7.85
2022-09-01T01:22:28.241Z,8.15
2022-09-01T01:24:57.110Z,7.90
2022-09-01T01:27:25.353Z,7.32
2022-09-01T01:29:53.361Z,8.63
2022-09-01T01:32:21.193Z,7.90
2022-09-01T01:34:48.907Z,7.50
2022-09-01T01:37:16.698Z,7.20
2022-09-01T01:39:44.351Z,10.10
2022-09-01T01:42:13.259Z,10.95
2022-09-01T01:44:40.797Z,9.00
2022-09-01T01:47:13.620Z,9.80
2022-09-01T01:49:41.688Z,10.57
2022-09-01T01:52:09.937Z,9.38
2022-09-01T01:54:37.347Z,12.20
2022-09-01T01:57:05.237Z,11.55
2022-09-01T01:59:34.643Z,20.67
2022-09-01T02:02:02.131Z,17.92
2022-09-01T02:04:29.732Z,17.08
2022-09-01T02:06:57.310Z,13.05
2022-09-01T02:09:24.785Z,8.30
2022-09-01T02:11:52.700Z,16.67
2022-09-01T02:14:20.319Z,8.15
2022-09-01T02:16:49.508Z,7.13
2022-09-01T02:19:17.124Z,7.70
2022-09-01T02:21:44.532Z,8.80
2022-09-01T02:24:12.042Z,7.63
2022-09-01T02:26:41.843Z,6.30
2022-09-01T02:29:14.562Z,8.68
2022-09-01T02:31:41.970Z,5.93
2022-09-01T02:34:11.293Z,7.72
2022-09-01T02:36:38.992Z,7.38
2022-09-01T02:39:06.488Z,10.07
2022-09-01T02:41:35.579Z,7.95
2022-09-01T02:44:04.018Z,16.75
2022-09-01T02:46:32.091Z,8.98
2022-09-01T02:49:00.025Z,7.15
2022-09-01T02:51:29.108Z,8.68
2022-09-01T02:53:56.551Z,8.32
2022-09-01T02:56:25.994Z,8.30
2022-09-01T02:58:55.013Z,7.53
2022-09-01T03:01:27.015Z,11.25
2022-09-01T03:03:56.940Z,10.45
2022-09-01T03:06:25.563Z,14.93
2022-09-01T03:08:56.779Z,27.98
2022-09-01T03:11:24.466Z,22.65
2022-09-01T03:13:52.520Z,14.93
2022-09-01T03:16:20.027Z,10.32
2022-09-01T03:18:47.620Z,13.65
2022-09-01T03:21:15.319Z,9.38
2022-09-01T03:23:44.844Z,11.23
2022-09-01T03:26:15.339Z,12.93
2022-09-01T03:28:42.819Z,13.60
2022-09-01T03:31:11.838Z,19.93
2022-09-01T03:33:39.446Z,17.88
2022-09-01T03:36:14.933Z,15.98
2022-09-01T03:38:43.463Z,12.73
2022-09-01T03:41:11.333Z,16.65
2022-09-01T03:43:46.870Z,18.58
2022-09-01T03:46:16.381Z,15.48
2022-09-01T03:48:43.872Z,16.05
2022-09-01T03:51:11.335Z,14.27
2022-09-01T03:53:38.938Z,18.05
2022-09-01T03:56:07.074Z,11.35
2022-09-01T03:58:34.943Z,14.85
2022-09-01T04:01:04.492Z,22.17
2022-09-01T04:03:36.126Z,40.40
2022-09-01T04:06:04.213Z,20.17
2022-09-01T04:08:33.869Z,17.40
2022-09-01T04:11:05.290Z,14.38
2022-09-01T04:13:37.923Z,16.80
2022-09-01T04:16:07.025Z,32.58
2022-09-01T04:18:34.849Z,42.13
2022-09-01T04:21:02.910Z,29.98
2022-09-01T04:23:34.808Z,21.05
2022-09-01T04:26:09.651Z,17.58
2022-09-01T04:28:39.951Z,19.73
2022-09-01T04:33:39.398Z,12.07
2022-09-01T04:38:42.237Z,22.20
2022-09-01T04:41:09.971Z,15.90
2022-09-01T04:43:37.367Z,14.50
2022-09-01T04:46:05.053Z,18.48
2022-09-01T04:48:34.015Z,13.85
2022-09-01T04:51:07.862Z,22.80
2022-09-01T04:53:49.347Z,11.20
2022-09-01T04:56:19.530Z,11.52
2022-09-01T05:01:26.566Z,14.35
2022-09-01T05:03:55.472Z,16.55
2022-09-01T05:06:41.690Z,14.27
2022-09-01T05:09:10.126Z,11.88
2022-09-01T05:12:07.370Z,16.55
2022-09-01T05:14:35.406Z,13.73
2022-09-01T05:17:02.874Z,11.40
2022-09-01T05:19:31.845Z,19.13
2022-09-01T05:22:00.943Z,211.30
2022-09-01T05:24:29.328Z,359.73
2022-09-01T05:26:59.920Z,120.20
2022-09-01T05:29:28.575Z,90.25
2022-09-01T05:31:57.622Z,67.63
2022-09-01T05:34:27.177Z,77.80
2022-09-01T05:36:59.244Z,188.80
2022-09-01T05:39:27.196Z,108.38
2022-09-01T05:41:54.893Z,49.00
2022-09-01T05:44:23.259Z,35.55
2022-09-01T05:46:52.678Z,30.55
2022-09-01T05:49:20.521Z,36.70
2022-09-01T05:51:51.211Z,31.85
2022-09-01T05:54:25.852Z,30.50
2022-09-01T05:56:54.107Z,24.38
2022-09-01T05:59:26.605Z,49.60
2022-09-01T06:02:16.177Z,66.32
2022-09-01T06:04:43.887Z,58.65
2022-09-01T06:07:17.412Z,66.10
2022-09-01T06:09:51.161Z,75.82
2022-09-01T06:12:21.619Z,55.88
2022-09-01T06:14:50.839Z,52.08
2022-09-01T06:17:20.015Z,37.50
2022-09-01T06:19:47.993Z,43.10
2022-09-01T06:22:16.349Z,28.80
2022-09-01T06:24:45.573Z,31.58
2022-09-01T06:27:16.165Z,29.63
2022-09-01T06:29:44.048Z,25.20
2022-09-01T06:32:12.281Z,26.58
2022-09-01T06:34:41.448Z,22.25
2022-09-01T06:39:37.144Z,21.10
2022-09-01T06:42:06.383Z,23.15
2022-09-01T06:44:48.066Z,23.30
2022-09-01T06:49:43.250Z,22.20
2022-09-01T06:52:16.282Z,20.65
2022-09-01T06:54:44.318Z,24.40
2022-09-01T07:00:03.731Z,23.10
2022-09-01T07:02:33.739Z,32.97
2022-09-01T07:08:05.679Z,25.45
2022-09-01T07:14:15.308Z,28.88
2022-09-01T07:16:38.547Z,28.95
2022-09-01T07:19:10.611Z,32.25
2022-09-01T07:21:40.935Z,46.97
2022-09-01T07:24:11.400Z,45.40
2022-09-01T07:26:47.468Z,39.50
2022-09-01T07:29:15.677Z,53.50
2022-09-01T07:32:43.441Z,59.40
2022-09-01T07:34:38.519Z,40.10
2022-09-01T07:38:46.920Z,47.88
2022-09-01T07:39:56.999Z,46.17
2022-09-01T07:46:00.829Z,43.28
2022-09-01T07:51:38.354Z,41.85
2022-09-01T07:54:07.944Z,44.85
2022-09-01T07:56:39.865Z,37.35
2022-09-01T07:59:15.097Z,35.42
2022-09-01T08:02:03.366Z,34.88
2022-09-01T08:04:32.894Z,35.70
2022-09-01T08:07:00.760Z,37.50
2022-09-01T08:09:37.600Z,36.27
2022-09-01T08:12:08.687Z,37.65
2022-09-01T08:17:51.484Z,33.13
2022-09-01T08:20:22.168Z,36.53
2022-09-01T08:22:56.796Z,35.80
2022-09-01T08:25:27.279Z,37.20
2022-09-01T08:28:02.723Z,33.67
2022-09-01T08:30:30.943Z,34.83
2022-09-01T08:32:59.233Z,35.75
2022-09-01T08:35:28.632Z,35.60
2022-09-01T08:37:59.344Z,38.42
2022-09-01T08:40:27.545Z,46.87
2022-09-01T08:43:06.687Z,43.63
2022-09-01T08:45:42.384Z,43.35
2022-09-01T08:51:19.993Z,41.35
2022-09-01T08:54:06.434Z,41.63
2022-09-01T08:56:34.907Z,43.58
2022-09-01T08:59:02.990Z,43.63
2022-09-01T09:02:08.509Z,41.65
2022-09-01T09:04:52.681Z,39.95
2022-09-01T09:07:37.623Z,38.25
2022-09-01T09:10:11.026Z,39.33
2022-09-01T09:12:51.591Z,39.03
2022-09-01T09:15:26.664Z,40.22
2022-09-01T09:18:03.342Z,35.95
2022-09-01T09:20:48.372Z,37.63
2022-09-01T09:23:27.150Z,39.72
2022-09-01T09:25:54.572Z,42.47
2022-09-01T09:28:21.959Z,40.15
2022-09-01T09:30:49.452Z,43.35
2022-09-01T09:33:51.416Z,39.45
2022-09-01T09:36:22.245Z,35.78
2022-09-01T09:39:10.296Z,35.20
2022-09-01T09:41:38.581Z,38.53
2022-09-01T09:44:16.580Z,34.70
2022-09-01T09:46:45.463Z,43.35
2022-09-01T09:49:17.641Z,37.60
2022-09-01T09:51:48.245Z,40.92
2022-09-01T09:54:21.337Z,39.10
2022-09-01T09:57:02.151Z,40.92
2022-09-01T09:59:56.955Z,39.53
2022-09-01T10:02:27.764Z,32.72
2022-09-01T10:04:56.231Z,37.42
2022-09-01T10:07:33.404Z,33.95
2022-09-01T10:10:07.911Z,39.63
2022-09-01T10:12:35.636Z,38.08
2022-09-01T10:15:11.627Z,36.33
2022-09-01T10:17:43.595Z,38.10
2022-09-01T10:20:17.815Z,33.30
2022-09-01T10:22:45.906Z,35.63
2022-09-01T10:25:19.475Z,32.17
2022-09-01T10:27:51.156Z,33.40
2022-09-01T10:30:20.852Z,28.17
2022-09-01T10:32:55.314Z,30.88
2022-09-01T10:35:26.933Z,29.20
2022-09-01T10:37:58.104Z,30.02
2022-09-01T10:40:43.349Z,33.03
2022-09-01T10:43:30.639Z,34.88
2022-09-01T10:46:15.641Z,26.27
2022-09-01T10:48:48.593Z,28.60
2022-09-01T10:51:50.548Z,28.33
2022-09-01T10:55:04.472Z,30.13
2022-09-01T10:57:51.575Z,28.27
2022-09-01T11:01:10.659Z,29.73
2022-09-01T11:03:51.736Z,29.42
2022-09-01T11:09:43.694Z,29.08
2022-09-01T11:12:39.822Z,25.92
2022-09-01T11:15:36.040Z,26.63
2022-09-01T11:18:08.181Z,25.08
2022-09-01T11:20:38.731Z,31.15
2022-09-01T11:23:11.916Z,26.25
2022-09-01T11:25:42.673Z,28.63
2022-09-01T11:28:26.076Z,25.73
2022-09-01T11:30:57.897Z,25.80
2022-09-01T11:33:50.990Z,24.98
2022-09-01T11:36:28.621Z,25.15
2022-09-01T11:39:04.087Z,29.40
2022-09-01T11:41:36.164Z,29.27
2022-09-01T11:44:13.524Z,32.03
2022-09-01T11:46:43.098Z,28.27
2022-09-01T11:49:26.453Z,28.27
2022-09-01T11:51:54.179Z,24.35
2022-09-01T11:54:22.697Z,22.77
2022-09-01T11:56:50.331Z,26.55
2022-09-01T11:59:31.358Z,24.63
2022-09-01T12:02:00.421Z,26.60
2022-09-01T12:04:32.895Z,25.35
2022-09-01T12:07:03.447Z,25.80
2022-09-01T12:09:36.562Z,21.88
2022-09-01T12:12:07.264Z,23.00
2022-09-01T12:14:55.023Z,23.25
2022-09-01T12:17:24.269Z,23.25
2022-09-01T12:19:51.762Z,23.63
2022-09-01T12:22:20.355Z,26.30
2022-09-01T12:24:50.309Z,26.33
2022-09-01T12:27:18.052Z,22.77
2022-09-01T12:29:46.166Z,20.02
2022-09-01T12:32:15.817Z,22.88
2022-09-01T12:34:47.379Z,22.85
2022-09-01T12:37:21.848Z,20.02
2022-09-01T12:39:51.195Z,21.85
2022-09-01T12:42:27.894Z,20.90
2022-09-01T12:44:57.788Z,20.75
2022-09-01T12:47:49.991Z,19.00
2022-09-01T12:50:37.624Z,19.50
2022-09-01T12:53:16.251Z,17.80
2022-09-01T12:55:57.618Z,18.20
2022-09-01T12:58:26.857Z,18.77
2022-09-01T13:00:56.680Z,18.08
2022-09-01T13:03:24.631Z,14.40
2022-09-01T13:05:54.943Z,15.90
2022-09-01T13:08:23.944Z,17.33
2022-09-01T13:10:53.680Z,13.43
2022-09-01T13:13:21.912Z,17.60
2022-09-01T13:15:51.658Z,15.32
2022-09-01T13:18:20.585Z,14.13
2022-09-01T13:20:48.645Z,14.15
2022-09-01T13:23:17.904Z,15.20
2022-09-01T13:25:45.522Z,18.48
2022-09-01T13:28:13.312Z,17.88
2022-09-01T13:30:41.436Z,14.15
2022-09-01T13:33:25.050Z,12.15
2022-09-01T13:35:53.013Z,15.57
2022-09-01T13:38:23.130Z,13.65
2022-09-01T13:40:53.603Z,14.18
2022-09-01T13:43:23.301Z,16.35
2022-09-01T13:45:51.686Z,14.02
2022-09-01T13:48:21.853Z,13.82
2022-09-01T13:53:40.160Z,14.02
2022-09-01T13:56:07.611Z,14.00
2022-09-01T13:58:35.000Z,16.13
2022-09-01T14:01:02.461Z,17.30
2022-09-01T14:03:29.926Z,20.95
2022-09-01T14:05:57.315Z,18.30
2022-09-01T14:08:24.945Z,16.33
2022-09-01T14:10:54.130Z,23.20
2022-09-01T14:13:23.727Z,13.80
2022-09-01T14:18:18.784Z,22.77
2022-09-01T14:20:48.376Z,16.10
2022-09-01T14:25:45.123Z,16.35
2022-09-01T14:28:14.374Z,61.05
2022-09-01T14:30:44.288Z,20.45
2022-09-01T14:33:12.401Z,16.02
2022-09-01T14:35:42.049Z,14.55
2022-09-01T14:40:37.622Z,15.25
2022-09-01T14:43:05.828Z,16.17
2022-09-01T14:45:34.719Z,14.27
2022-09-01T14:48:02.303Z,16.52
2022-09-01T14:50:31.029Z,13.98
2022-09-01T14:52:59.598Z,13.97
2022-09-01T14:55:29.266Z,15.85
2022-09-01T14:57:57.302Z,18.40
2022-09-01T15:00:25.166Z,19.50
2022-09-01T15:02:54.926Z,20.33
2022-09-01T15:07:50.520Z,39.80
2022-09-01T15:10:25.364Z,25.08
2022-09-01T15:12:55.165Z,19.02
2022-09-01T15:15:23.118Z,21.60
2022-09-01T15:17:50.551Z,19.48
2022-09-01T15:20:19.867Z,18.00
2022-09-01T15:22:47.375Z,18.00
2022-09-01T15:25:15.363Z,19.20
2022-09-01T15:27:43.088Z,17.00
2022-09-01T15:30:12.080Z,17.42
2022-09-01T15:32:39.487Z,15.45
2022-09-01T15:35:07.943Z,14.68
2022-09-01T15:37:36.846Z,13.82
2022-09-01T15:40:07.168Z,16.35
2022-09-01T15:42:35.321Z,16.80
2022-09-01T15:45:05.114Z,21.05
2022-09-01T15:47:32.663Z,25.30
2022-09-01T15:50:00.123Z,26.08
2022-09-01T15:52:29.175Z,20.70
2022-09-01T15:55:02.746Z,23.65
2022-09-01T15:57:30.191Z,22.23
2022-09-01T15:59:58.189Z,18.08
2022-09-01T16:02:25.855Z,18.02
2022-09-01T16:04:53.390Z,16.83
2022-09-01T16:07:20.772Z,22.23
2022-09-01T16:09:48.144Z,18.52
2022-09-01T16:12:17.016Z,19.23
2022-09-01T16:14:44.447Z,22.88
2022-09-01T16:17:17.896Z,24.10
2022-09-01T16:19:53.400Z,25.13
2022-09-01T16:22:26.482Z,22.17
2022-09-01T16:24:56.383Z,21.42
2022-09-01T16:27:30.479Z,17.05
2022-09-01T16:30:01.923Z,23.27
2022-09-01T16:32:29.596Z,18.75
2022-09-01T16:34:57.196Z,19.83
2022-09-01T16:37:40.137Z,18.92
2022-09-01T16:40:18.009Z,18.48
2022-09-01T16:42:57.936Z,18.25
2022-09-01T16:45:42.752Z,16.77
2022-09-01T16:48:18.185Z,18.38
2022-09-01T16:50:55.436Z,17.20
2022-09-01T16:53:45.968Z,18.95
2022-09-01T16:56:19.422Z,16.40
2022-09-01T16:58:56.608Z,16.58
2022-09-01T17:01:39.628Z,16.42
2022-09-01T17:04:23.524Z,15.30
2022-09-01T17:06:58.776Z,14.80
2022-09-01T17:09:31.695Z,18.48
2022-09-01T17:12:12.563Z,21.25
2022-09-01T17:14:48.436Z,18.48
2022-09-01T17:17:20.267Z,18.67
2022-09-01T17:19:48.556Z,18.70
2022-09-01T17:22:16.668Z,19.83
2022-09-01T17:24:46.471Z,16.27
2022-09-01T17:27:20.618Z,14.48
2022-09-01T17:29:50.964Z,16.50
2022-09-01T17:32:51.304Z,15.60
2022-09-01T17:35:25.496Z,18.42
2022-09-01T17:38:01.739Z,17.40
2022-09-01T17:40:43.059Z,16.70
2022-09-01T17:43:16.256Z,18.05
2022-09-01T17:45:51.404Z,19.80
2022-09-01T17:48:22.658Z,19.38
2022-09-01T17:51:03.535Z,16.38
2022-09-01T17:53:42.512Z,21.50
2022-09-01T17:56:30.879Z,18.42
2022-09-01T17:59:04.468Z,19.55
2022-09-01T18:01:40.211Z,21.20
2022-09-01T18:04:36.829Z,17.88
2022-09-01T18:07:11.076Z,19.42
2022-09-01T18:09:45.386Z,16.65
2022-09-01T18:12:17.889Z,18.67
2022-09-01T18:14:55.180Z,19.80
2022-09-01T18:17:29.103Z,19.48
2022-09-01T18:20:06.588Z,18.25
2022-09-01T18:22:42.456Z,13.73
2022-09-01T18:25:17.460Z,16.63
2022-09-01T18:27:46.020Z,15.07
2022-09-01T18:30:19.139Z,18.10
2022-09-01T18:32:58.526Z,16.55
2022-09-01T18:35:33.621Z,22.67
2022-09-01T18:38:18.818Z,22.60
2022-09-01T18:41:04.608Z,17.45
2022-09-01T18:43:35.993Z,19.00
2022-09-01T18:46:13.143Z,16.90
2022-09-01T18:48:54.674Z,16.10
2022-09-01T18:51:30.560Z,18.45
2022-09-01T18:54:07.411Z,14.73
2022-09-01T18:56:44.442Z,17.13
2022-09-01T18:59:37.800Z,18.95
2022-09-01T19:02:19.085Z,14.73
2022-09-01T19:04:50.251Z,15.80
2022-09-01T19:07:26.117Z,18.58
2022-09-01T19:09:58.701Z,17.05
2022-09-01T19:12:34.101Z,17.58
2022-09-01T19:15:10.135Z,21.92
2022-09-01T19:18:03.700Z,17.88
2022-09-01T19:20:43.724Z,16.30
2022-09-01T19:23:16.736Z,18.42
2022-09-01T19:25:44.451Z,18.70
2022-09-01T19:28:18.607Z,17.95
2022-09-01T19:30:50.491Z,17.20
2022-09-01T19:33:21.646Z,18.48
2022-09-01T19:35:54.124Z,19.23
2022-09-01T19:38:24.996Z,18.88
2022-09-01T19:40:56.811Z,17.88
2022-09-01T19:43:24.228Z,18.08
2022-09-01T19:46:04.265Z,18.63
2022-09-01T19:48:38.500Z,16.92
2022-09-01T19:51:14.310Z,17.10
2022-09-01T19:53:46.428Z,24.23
2022-09-01T19:56:20.541Z,31.33
2022-09-01T19:58:59.655Z,35.63
2022-09-01T20:01:39.326Z,35.47
2022-09-01T20:04:16.932Z,21.83
2022-09-01T20:06:50.621Z,24.30
2022-09-01T20:09:24.051Z,23.27
2022-09-01T20:11:56.419Z,20.40
2022-09-01T20:14:39.455Z,19.75
2022-09-01T20:17:11.999Z,19.95
2022-09-01T20:19:44.666Z,19.00
2022-09-01T20:22:24.016Z,18.90
2022-09-01T20:25:03.219Z,20.77
2022-09-01T20:27:38.514Z,19.25
2022-09-01T20:30:09.110Z,17.02
2022-09-01T20:32:44.504Z,19.95
2022-09-01T20:35:16.572Z,19.58
2022-09-01T20:37:49.466Z,19.75
2022-09-01T20:40:22.238Z,17.92
2022-09-01T20:43:05.833Z,15.57
2022-09-01T20:45:33.607Z,18.15
2022-09-01T20:48:03.758Z,15.10
2022-09-01T20:50:42.662Z,17.65
2022-09-01T20:53:22.366Z,16.40
2022-09-01T20:55:55.252Z,16.00
2022-09-01T20:58:32.926Z,16.15
2022-09-01T21:01:17.967Z,15.45
2022-09-01T21:03:56.980Z,16.05
2022-09-01T21:06:48.637Z,14.40
2022-09-01T21:09:27.678Z,14.45
2022-09-01T21:12:02.650Z,18.00
2022-09-01T21:14:44.493Z,18.73
2022-09-01T21:17:21.670Z,17.42
2022-09-01T21:19:57.971Z,19.27
2022-09-01T21:22:27.259Z,34.95
2022-09-01T21:24:56.326Z,39.20
2022-09-01T21:27:26.950Z,32.88
2022-09-01T21:29:58.010Z,30.60
2022-09-01T21:32:26.850Z,21.50
2022-09-01T21:34:54.264Z,18.45
2022-09-01T21:37:22.463Z,19.33
2022-09-01T21:39:50.175Z,19.17
2022-09-01T21:42:20.966Z,32.95
2022-09-01T21:44:48.893Z,34.75
2022-09-01T21:47:16.467Z,34.95
2022-09-01T21:49:44.021Z,22.83
2022-09-01T21:52:11.542Z,17.48
2022-09-01T21:54:39.039Z,18.65
2022-09-01T21:57:06.890Z,14.10
2022-09-01T21:59:35.792Z,15.95
2022-09-01T22:02:03.439Z,13.80
2022-09-01T22:04:30.884Z,13.98
2022-09-01T22:06:58.278Z,12.63
2022-09-01T22:09:26.200Z,13.77
2022-09-01T22:11:53.594Z,12.25
2022-09-01T22:14:21.803Z,13.35
2022-09-01T22:16:50.827Z,22.52
2022-09-01T22:19:18.365Z,20.30
2022-09-01T22:21:47.858Z,18.45
2022-09-01T22:24:19.145Z,14.48
2022-09-01T22:26:48.189Z,13.90
2022-09-01T22:29:15.706Z,19.80
2022-09-01T22:31:43.104Z,23.50
2022-09-01T22:34:12.038Z,23.17
2022-09-01T22:36:43.033Z,21.73
2022-09-01T22:39:11.995Z,14.32
2022-09-01T22:41:41.244Z,17.80
2022-09-01T22:44:09.704Z,16.42
2022-09-01T22:46:38.682Z,14.13
2022-09-01T22:49:06.865Z,15.50
2022-09-01T22:51:38.419Z,18.60
2022-09-01T22:54:08.178Z,16.63
2022-09-01T22:56:38.025Z,14.07
2022-09-01T22:59:08.464Z,14.27
2022-09-01T23:01:38.447Z,12.38
2022-09-01T23:04:07.606Z,12.70
2022-09-01T23:06:41.340Z,11.90
2022-09-01T23:09:08.889Z,12.15
2022-09-01T23:11:36.343Z,11.10
2022-09-01T23:14:04.134Z,10.68
2022-09-01T23:16:31.771Z,10.13
2022-09-01T23:18:59.257Z,12.82
2022-09-01T23:21:30.439Z,22.50
2022-09-01T23:24:00.047Z,43.00
2022-09-01T23:28:56.152Z,20.95
2022-09-01T23:31:26.913Z,18.83
2022-09-01T23:33:55.176Z,13.57
2022-09-01T23:36:26.603Z,14.02
2022-09-01T23:38:55.255Z,13.65
2022-09-01T23:41:26.406Z,22.92
2022-09-01T23:43:54.571Z,35.85
2022-09-01T23:46:24.225Z,47.67
2022-09-01T23:51:19.642Z,25.08
2022-09-01T23:53:48.416Z,22.42
2022-09-01T23:56:19.080Z,17.50
2022-09-01T23:58:48.075Z,12.98
